Flight Track Log - Related Links

Times and Time Zones

All times are in EDT time to prevent confusion due to time zone crossing. See the N45440 flight status page for this flight to view local times or setup timezone preferences in your user account.

Time Position Orientation Groundspeed Altitude Reporting Facility
EDT Latitude Longitude Course Direction KTS MPH feet Rate Location/Type
Sat 10:27:32 AM 40.6043 -74.3914 79° East  Level FlightAware Approximate
Sat 10:27:54 AM 40.6333 -74.2000 250° West 220 253 1,900  Level New York TRACON
Sat 10:29:03 AM 40.6057 -74.3024 261° West 266 306 4,100 1,920 Climbing FlightAware ADS-B
Sat 10:29:09 AM 40.6045 -74.3121 266° West 269 310 4,300 2,250 Climbing FlightAware ADS-B
Sat 10:29:19 AM 40.6036 -74.3284 267° West 273 314 4,700 2,526 Climbing FlightAware ADS-B
Sat 10:29:28 AM 40.6031 -74.3427 266° West 274 315 5,100 2,880 Climbing FlightAware ADS-B
Sat 10:29:44 AM 40.6017 -74.3701 265° West 275 316 5,900 2,625 Climbing FlightAware ADS-B
Sat 10:30:00 AM 40.6001 -74.3957 264° West 279 321 6,500 2,667 Climbing FlightAware ADS-B
Sat 10:30:11 AM 40.5986 -74.4154 267° West 279 321 7,100 2,667 Climbing FlightAware ADS-B
Sat 10:30:27 AM 40.5974 -74.4414 269° West 282 325 7,700 2,129 Climbing FlightAware ADS-B
Sat 10:30:42 AM 40.5970 -74.4691 268° West 292 336 8,200 2,129 Climbing FlightAware ADS-B
Sat 10:30:58 AM 40.5963 -74.4980 265° West 299 344 8,800 2,250 Climbing FlightAware ADS-B
Sat 10:31:14 AM 40.5943 -74.5262 265° West 301 346 9,400 2,333 Climbing FlightAware ADS-B
Sat 10:31:34 AM 40.5919 -74.5636 267° West 305 351 10,200 1,647 Climbing FlightAware ADS-B
Sat 10:32:05 AM 40.5896 -74.6221 265° West 329 379 10,800 933 Climbing FlightAware ADS-B
Sat 10:32:19 AM 40.5876 -74.6509 260° West 344 396 10,900 667 Climbing FlightAware ADS-B
Sat 10:32:23 AM 40.5864 -74.6596 256° West 346 398 11,000 1,333 Climbing FlightAware ADS-B
Sat 10:32:28 AM 40.5843 -74.6708 251° West 349 402 11,100 1,500 Climbing FlightAware ADS-B
Sat 10:32:35 AM 40.5810 -74.6834 243° Southwest 356 410 11,300 1,600 Climbing FlightAware ADS-B
Sat 10:32:43 AM 40.5746 -74.7000 236° Southwest 363 418 11,500 2,000 Climbing FlightAware ADS-B
Sat 10:32:53 AM 40.5652 -74.7181 233° Southwest 366 421 11,900 2,250 Climbing FlightAware ADS-B
Sat 10:33:23 AM 40.5340 -74.7718 233° Southwest 371 427 13,000 2,200 Climbing FlightAware ADS-B
Sat 10:33:53 AM 40.5027 -74.8265 233° Southwest 377 434 14,100 2,262 Climbing FlightAware ADS-B
Sat 10:34:24 AM 40.4713 -74.8819 233° Southwest 377 434 15,300 2,262 Climbing FlightAware ADS-B
Sat 10:34:54 AM 40.4398 -74.9374 233° Southwest 380 437 16,400 2,133 Climbing FlightAware ADS-B
Sat 10:35:09 AM 40.4241 -74.9649 229° Southwest 383 441 16,900 1,929 Climbing FlightAware ADS-B
Sat 10:35:22 AM 40.4089 -74.9881 227° Southwest 387 445 17,300 1,535 Climbing FlightAware ADS-B
Sat 10:35:52 AM 40.3716 -75.0406 227° Southwest 396 456 18,000 700 Climbing FlightAware ADS-B
Sat 10:36:22 AM 40.3338 -75.0936 227° Southwest 396 456 18,000 300 Level FlightAware ADS-B
Sat 10:36:52 AM 40.2959 -75.1465 227° Southwest 398 458 18,300 787 Climbing FlightAware ADS-B
Sat 10:37:23 AM 40.2572 -75.2005 227° Southwest 401 461 18,800 1,125 Climbing FlightAware ADS-B
Sat 10:37:56 AM 40.2152 -75.2590 227° Southwest 407 468 19,500 1,594 Climbing FlightAware ADS-B
Sat 10:38:27 AM 40.1750 -75.3150 227° Southwest 407 468 20,500 1,770 Climbing FlightAware ADS-B
Sat 10:38:57 AM 40.1356 -75.3699 227° Southwest 410 472 21,300 1,574 Climbing FlightAware ADS-B
Sat 10:39:28 AM 40.0955 -75.4252 227° Southwest 415 478 22,100 1,455 Climbing FlightAware ADS-B
Sat 10:40:03 AM 40.0487 -75.4897 227° Southwest 421 484 22,900 1,292 Climbing FlightAware ADS-B
Sat 10:40:33 AM 40.0082 -75.5457 227° Southwest 428 493 23,500 1,082 Climbing FlightAware ADS-B
Sat 10:41:04 AM 39.9665 -75.6035 227° Southwest 436 502 24,000 1,082 Climbing FlightAware ADS-B
Sat 10:41:34 AM 39.9239 -75.6625 230° Southwest 441 507 24,600 1,161 Climbing FlightAware ADS-B
Sat 10:42:06 AM 39.8829 -75.7267 231° Southwest 445 512 25,200 1,161 Climbing FlightAware ADS-B
Sat 10:42:36 AM 39.8435 -75.7899 231° Southwest 449 517 25,800 1,200 Climbing FlightAware ADS-B
Sat 10:43:06 AM 39.8031 -75.8543 231° Southwest 452 520 26,400 1,161 Climbing FlightAware ADS-B
Sat 10:43:38 AM 39.7629 -75.9184 231° Southwest 454 522 27,000 1,065 Climbing FlightAware ADS-B
Sat 10:44:08 AM 39.7213 -75.9846 231° Southwest 457 526 27,500 1,000 Climbing FlightAware ADS-B
Sat 10:44:38 AM 39.6808 -76.0488 231° Southwest 460 529 28,000 896 Climbing FlightAware ADS-B
Sat 10:45:15 AM 39.6306 -76.1279 231° Southwest 464 534 28,500 1,075 Climbing FlightAware ADS-B
Sat 10:45:45 AM 39.5896 -76.1926 230° Southwest 462 532 29,200 1,355 Climbing FlightAware ADS-B
Sat 10:46:17 AM 39.5467 -76.2594 230° Southwest 461 531 29,900 1,161 Climbing FlightAware ADS-B
Sat 10:46:47 AM 39.5050 -76.3233 230° Southwest 460 529 30,400 984 Climbing FlightAware ADS-B
Sat 10:47:18 AM 39.4631 -76.3873 230° Southwest 461 531 30,900 984 Climbing FlightAware ADS-B
Sat 10:47:48 AM 39.4222 -76.4511 231° Southwest 459 528 31,400 885 Climbing FlightAware ADS-B
Sat 10:48:19 AM 39.3800 -76.5179 231° Southwest 460 529 31,800 844 Climbing FlightAware ADS-B
Sat 10:48:52 AM 39.3356 -76.5879 231° Southwest 462 532 32,300 831 Climbing FlightAware ADS-B
Sat 10:49:24 AM 39.2922 -76.6560 230° Southwest 462 532 32,700 738 Climbing FlightAware ADS-B
Sat 10:49:57 AM 39.2485 -76.7243 230° Southwest 462 532 33,100 738 Climbing FlightAware ADS-B
Sat 10:50:29 AM 39.2041 -76.7936 230° Southwest 462 532 33,500 750 Climbing FlightAware ADS-B
Sat 10:51:01 AM 39.1604 -76.8615 230° Southwest 462 532 33,900 455 Climbing FlightAware ADS-B
Sat 10:51:35 AM 39.1151 -76.9321 230° Southwest 462 532 34,000 87 Climbing FlightAware ADS-B
Sat 10:52:10 AM 39.0675 -77.0059 229° Southwest 462 532 34,000  Level FlightAware ADS-B
Sat 10:52:14 AM 39.0609 -77.0156 225° Southwest 464 534 34,000  Level FlightAware ADS-B
Sat 10:52:30 AM 39.0373 -77.0457 221° Southwest 466 536 34,000  Level FlightAware ADS-B
Sat 10:53:01 AM 38.9868 -77.1015 221° Southwest 465 535 34,000  Level FlightAware ADS-B
Sat 10:53:31 AM 38.9375 -77.1557 220° Southwest 465 535 34,000  Level FlightAware ADS-B
Sat 10:54:02 AM 38.8873 -77.2107 220° Southwest 465 535 34,000  Level FlightAware ADS-B
Sat 10:54:36 AM 38.8306 -77.2728 221° Southwest 465 535 34,000  Level FlightAware ADS-B
Sat 10:55:15 AM 38.7675 -77.3419 220° Southwest 468 539 34,000  Level FlightAware ADS-B
Sat 10:55:45 AM 38.7174 -77.3966 220° Southwest 468 539 34,000  Level FlightAware ADS-B
Sat 10:56:16 AM 38.6665 -77.4519 220° Southwest 470 541 34,000  Level FlightAware ADS-B
Sat 10:56:48 AM 38.6142 -77.5088 220° Southwest 470 541 34,000  Level FlightAware ADS-B
Sat 10:57:25 AM 38.5523 -77.5761 220° Southwest 472 543 34,000  Level FlightAware ADS-B
Sat 10:58:33 AM 38.4385 -77.6986 218° Southwest 472 543 34,000  Level FlightAware ADS-B
Sat 10:58:57 AM 38.4044 -77.7325 221° Southwest 470 541 34,000  Level Washington Center
Sat 11:00:17 AM 38.2656 -77.8843 220° Southwest 472 543 34,000  Level FlightAware ADS-B
Sat 11:01:13 AM 38.1727 -77.9836 220° Southwest 472 543 34,000  Level FlightAware ADS-B
Sat 11:01:45 AM 38.1194 -78.0406 220° Southwest 471 542 34,000  Level FlightAware ADS-B
Sat 11:02:43 AM 38.0229 -78.1431 219° Southwest 470 541 34,000  Level FlightAware ADS-B
Sat 11:03:57 AM 37.9208 -78.2478 216° Southwest 464 534 34,000  Level Washington Center
Sat 11:04:57 AM 37.8036 -78.3567 217° Southwest 470 541 34,000  Level Washington Center
Sat 11:05:57 AM 37.7011 -78.4528 217° Southwest 477 549 34,000  Level Washington Center
Sat 11:06:56 AM 37.5944 -78.5536 217° Southwest 477 549 34,000  Level Washington Center
Sat 11:07:57 AM 37.4897 -78.6517 217° Southwest 477 549 34,000  Level Washington Center
Sat 11:08:57 AM 37.3958 -78.7392 216° Southwest 477 549 34,000  Level Washington Center
Sat 11:09:55 AM 37.2889 -78.8367 217° Southwest 477 549 34,000  Level Washington Center
Sat 11:10:56 AM 37.1817 -78.9364 216° Southwest 477 549 34,000  Level Washington Center
Sat 11:11:55 AM 37.0747 -79.0333 217° Southwest 477 549 34,000  Level Washington Center
Sat 11:12:55 AM 36.9694 -79.1325 216° Southwest 477 549 34,000  Level Washington Center
Sat 11:13:56 AM 36.8536 -79.2389 217° Southwest 477 549 34,000  Level Washington Center
Sat 11:14:56 AM 36.7483 -79.3375 216° Southwest 477 549 34,000  Level Washington Center
Sat 11:15:56 AM 36.6411 -79.4361 216° Southwest 477 549 34,000  Level Washington Center
Sat 11:17:18 AM 36.4900 -79.5714 216° Southwest 477 549 34,000  Level Atlanta Center
Sat 11:18:18 AM 36.3831 -79.6675 216° Southwest 482 555 34,000  Level Atlanta Center
Sat 11:19:18 AM 36.2858 -79.7553 216° Southwest 487 560 34,000  Level Atlanta Center
Sat 11:20:18 AM 36.1786 -79.8511 216° Southwest 487 560 34,000  Level Atlanta Center
Sat 11:21:18 AM 36.0714 -79.9492 205° Southwest 487 560 34,000  Level Atlanta Center
Sat 11:22:18 AM 35.9383 -80.0250 204° Southwest 480 552 34,000  Level Atlanta Center
Sat 11:23:18 AM 35.8175 -80.0900 201° Southwest 480 552 34,000  Level Atlanta Center
Sat 11:24:18 AM 35.6922 -80.1497 203° Southwest 480 552 34,000  Level Atlanta Center
Sat 11:25:18 AM 35.5689 -80.2142 203° Southwest 485 558 34,000  Level Atlanta Center
Sat 11:26:18 AM 35.4478 -80.2758 202° Southwest 485 558 34,000  Level Atlanta Center
Sat 11:27:18 AM 35.3347 -80.3319 202° Southwest 485 558 34,000  Level Atlanta Center
Sat 11:28:50 AM 35.1308 -80.4333 202° Southwest 500 575 34,000  Level Jacksonville Center
Sat 11:29:50 AM 35.0214 -80.4872 203° Southwest 488 562 34,000  Level Jacksonville Center
Sat 11:30:50 AM 34.8975 -80.5514 201° Southwest 488 562 34,000  Level Jacksonville Center
Sat 11:31:50 AM 34.7794 -80.6078 202° Southwest 481 554 34,000  Level Jacksonville Center
Sat 11:32:50 AM 34.6556 -80.6689 203° Southwest 476 548 34,000  Level Jacksonville Center
Sat 11:33:50 AM 34.5128 -80.7408 203° Southwest 503 579 34,000  Level Jacksonville Center
Sat 11:34:50 AM 34.3825 -80.8069 201° Southwest 495 570 34,000  Level Jacksonville Center
Sat 11:35:49 AM 34.2872 -80.8519 201° Southwest 494 568 34,000 -50 Level Jacksonville Center
Sat 11:36:49 AM 34.1569 -80.9125 201° Southwest 477 549 33,900  Descending Jacksonville Center
Sat 11:37:50 AM 34.0325 -80.9706 201° Southwest 477 549 34,000 50 Climbing Jacksonville Center
Sat 11:38:49 AM 33.8917 -81.0361 203° Southwest 485 558 34,000  Level Jacksonville Center
Sat 11:39:50 AM 33.7714 -81.0961 204° Southwest 491 565 34,000  Level Jacksonville Center
Sat 11:40:49 AM 33.6597 -81.1558 202° Southwest 491 565 34,000  Level Jacksonville Center
Sat 11:41:49 AM 33.5394 -81.2156 202° Southwest 485 558 34,000  Level Jacksonville Center
Sat 11:42:50 AM 33.4108 -81.2778 202° Southwest 485 558 34,000  Level Jacksonville Center
Sat 11:43:49 AM 33.2717 -81.3447 203° Southwest 493 567 34,000  Level Jacksonville Center
Sat 11:44:49 AM 33.1472 -81.4089 202° Southwest 493 567 34,000 -50 Level Jacksonville Center
Sat 11:45:50 AM 33.0228 -81.4681 203° Southwest 493 567 33,900  Descending Jacksonville Center
Sat 11:46:50 AM 32.8983 -81.5294 199° South 493 567 34,000 50 Climbing Jacksonville Center
Sat 11:47:49 AM 32.7653 -81.5833 177° South 493 567 34,000  Level Jacksonville Center
Sat 11:48:50 AM 32.6461 -81.5750 173° South 482 555 34,000  Level Jacksonville Center
Sat 11:49:49 AM 32.4997 -81.5525 173° South 479 551 34,000  Level Jacksonville Center
Sat 11:50:49 AM 32.3639 -81.5325 173° South 485 558 34,000  Level Jacksonville Center
Sat 11:51:50 AM 32.2322 -81.5122 173° South 485 558 34,000  Level Jacksonville Center
Sat 11:52:49 AM 32.1150 -81.4944 173° South 485 558 34,000  Level Jacksonville Center
Sat 11:53:49 AM 31.9811 -81.4744 173° South 485 558 34,000  Level Jacksonville Center
Sat 11:54:50 AM 31.8306 -81.4522 174° South 490 564 34,000  Level Jacksonville Center
Sat 11:55:50 AM 31.7008 -81.4372 174° South 476 548 34,000  Level Jacksonville Center
Sat 11:56:50 AM 31.5692 -81.4197 173° South 476 548 34,000  Level Jacksonville Center
Sat 11:57:50 AM 31.4500 -81.4022 173° South 486 559 34,000  Level Jacksonville Center
Sat 11:58:50 AM 31.3203 -81.3825 174° South 486 559 34,000  Level Jacksonville Center
Sat 11:59:50 AM 31.1864 -81.3650 173° South 486 559 34,000  Level Jacksonville Center
Sat 12:00:50 PM 31.0547 -81.3453 173° South 486 559 34,000 -50 Level Jacksonville Center
Sat 12:01:50 PM 30.9272 -81.3281 174° South 476 548 33,900  Descending Jacksonville Center
Sat 12:02:50 PM 30.7953 -81.3108 167° South 476 548 34,000  Climbing Jacksonville Center
Sat 12:03:50 PM 30.6675 -81.2769 165° South 476 548 33,900  Descending Jacksonville Center
Sat 12:04:50 PM 30.5439 -81.2381 165° South 469 540 34,000 50 Climbing Jacksonville Center
Sat 12:05:50 PM 30.4181 -81.1992 165° South 469 540 34,000  Level Jacksonville Center
Sat 12:06:50 PM 30.2903 -81.1606 165° South 474 545 34,000  Level Jacksonville Center
Sat 12:07:50 PM 30.1644 -81.1219 166° South 474 545 34,000  Level Jacksonville Center
Sat 12:08:50 PM 30.0386 -81.0858 164° South 474 545 34,000  Level Jacksonville Center
Sat 12:09:50 PM 29.9150 -81.0450 167° South 474 545 34,000  Level Jacksonville Center
Sat 12:10:50 PM 29.7850 -81.0092 166° South 474 545 34,000  Level Jacksonville Center
Sat 12:11:50 PM 29.6467 -80.9689 164° South 474 545 34,000  Level Jacksonville Center
Sat 12:13:36 PM 29.4494 -80.9044 165° South 467 537 34,000  Level Miami Center
Sat 12:14:36 PM 29.3128 -80.8636 165° South 467 537 34,000  Level Miami Center
Sat 12:15:36 PM 29.1847 -80.8233 167° South 472 543 34,000  Level Miami Center
Sat 12:16:36 PM 29.0564 -80.7903 170° South 472 543 34,000  Level Miami Center
Sat 12:17:36 PM 28.9172 -80.7617 170° South 467 537 34,000  Level Miami Center
Sat 12:18:36 PM 28.7825 -80.7333 169° South 473 544 34,000  Level Miami Center
Sat 12:19:36 PM 28.6683 -80.7081 168° South 478 550 34,000  Level Miami Center
Sat 12:20:36 PM 28.5419 -80.6775 169° South 478 550 34,000  Level Miami Center
Sat 12:21:36 PM 28.4031 -80.6469 169° South 465 535 34,000 -50 Level Miami Center
Sat 12:22:36 PM 28.2744 -80.6189 169° South 471 542 33,900 -50 Descending Miami Center
Sat 12:23:36 PM 28.1500 -80.5914 169° South 466 536 33,900 50 Level Miami Center
Sat 12:24:36 PM 28.0211 -80.5636 169° South 466 536 34,000 50 Climbing Miami Center
Sat 12:25:36 PM 27.8925 -80.5358 169° South 466 536 34,000  Level Miami Center
Sat 12:26:36 PM 27.7617 -80.5081 176° South 472 543 34,000  Level Miami Center
Sat 12:27:37 PM 27.6325 -80.4969 191° South 472 543 34,000  Level Miami Center
Sat 12:28:36 PM 27.5025 -80.5256 191° South 470 541 34,000  Level Miami Center
Sat 12:29:36 PM 27.3703 -80.5542 192° South 476 548 34,000  Level Miami Center
Sat 12:30:36 PM 27.2378 -80.5850 190° South 482 555 34,000  Level Miami Center
Sat 12:31:36 PM 27.1056 -80.6111 191° South 487 560 34,000  Level Miami Center
Sat 12:32:37 PM 26.9733 -80.6394 190° South 487 560 34,000  Level Miami Center
Sat 12:33:36 PM 26.8411 -80.6653 191° South 487 560 34,000  Level Miami Center
Sat 12:34:36 PM 26.7256 -80.6894 190° South 477 549 34,000  Level Miami Center
Sat 12:35:36 PM 26.5828 -80.7175 191° South 477 549 34,000  Level Miami Center
Sat 12:36:36 PM 26.4653 -80.7439 190° South 477 549 34,000  Level Miami Center
Sat 12:37:36 PM 26.3225 -80.7714 190° South 477 549 34,000  Level Miami Center
Sat 12:38:37 PM 26.2111 -80.7933 191° South 464 534 34,000 -50 Level Miami Center
Sat 12:39:36 PM 26.0831 -80.8214 189° South 464 534 33,900  Descending Miami Center
Sat 12:40:36 PM 25.9550 -80.8450 192° South 469 540 34,000 50 Climbing Miami Center
Sat 12:41:36 PM 25.8311 -80.8731 190° South 469 540 34,000  Level Miami Center
Sat 12:42:36 PM 25.7031 -80.8989 190° South 469 540 34,000  Level Miami Center
Sat 12:43:36 PM 25.5728 -80.9244 189° South 469 540 34,000  Level Miami Center
Sat 12:44:36 PM 25.4467 -80.9478 190° South 469 540 34,000 500 Level Miami Center
Sat 12:45:36 PM 25.3186 -80.9733 190° South 469 540 35,000 446 Climbing Miami Center
Sat 12:46:37 PM 25.1928 -80.9967 190° South 469 540 34,900  Descending Miami Center
Sat 12:47:37 PM 25.0708 -81.0200 190° South 464 534 35,000 50 Climbing Miami Center
Sat 12:48:36 PM 24.9492 -81.0433 189° South 459 528 35,000 -50 Level Miami Center
Sat 12:49:36 PM 24.8253 -81.0644 190° South 453 521 34,900  Descending Miami Center
Sat 12:50:36 PM 24.7014 -81.0875 191° South 453 521 35,000 50 Climbing Miami Center
Sat 12:51:36 PM 24.5775 -81.1131 190° South 453 521 35,000  Level Miami Center
Sat 12:52:36 PM 24.4578 -81.1364 190° South 453 521 35,000  Level Miami Center
Sat 12:53:36 PM 24.3358 -81.1594 188° South 453 521 35,000  Level Miami Center
Sat 12:54:36 PM 24.2100 -81.1781 189° South 453 521 35,000  Level Miami Center
Sat 12:55:36 PM 24.0925 -81.1989 186° South 448 516 35,000 -50 Level Miami Center
Sat 12:56:37 PM 23.9731 -81.2131 182° South 448 516 34,900 -98 Descending Miami Center
Sat 01:04:32 PM 22.9770 -81.2465 182° South  Level FlightAware Approximate
Sat 01:05:32 PM 22.8512 -81.2507 182° South  Level FlightAware Approximate
Sat 01:06:32 PM 22.7253 -81.2549 182° South  Level FlightAware Approximate
Sat 01:07:32 PM 22.5995 -81.2591 182° South  Level FlightAware Approximate
Sat 01:08:32 PM 22.4737 -81.2633 182° South  Level FlightAware Approximate
Sat 01:09:32 PM 22.3479 -81.2674 182° South  Level FlightAware Approximate
Sat 01:10:32 PM 22.2221 -81.2716 182° South  Level FlightAware Approximate
Sat 01:11:32 PM 22.0962 -81.2757 182° South  Level FlightAware Approximate
Sat 01:12:32 PM 21.9704 -81.2799 182° South  Level FlightAware Approximate
Sat 01:13:32 PM 21.8446 -81.2840 182° South  Level FlightAware Approximate
Sat 01:14:32 PM 21.7188 -81.2881 182° South  Level FlightAware Approximate
Sat 01:15:32 PM 21.5930 -81.2923 178° South  Level FlightAware Approximate
Sat 01:16:32 PM 21.4680 -81.2872 182° South  Level FlightAware Approximate
Sat 01:17:32 PM 21.3421 -81.2919 182° South  Level FlightAware Approximate
Sat 01:18:32 PM 21.2163 -81.2965 184° South  Level FlightAware Approximate
Sat 01:19:32 PM 21.0910 -81.3059 185° South  Level FlightAware Approximate
Sat 01:20:32 PM 20.9656 -81.3167 182° South  Level FlightAware Approximate
Sat 01:21:32 PM 20.8398 -81.3204 182° South  Level FlightAware Approximate
Sat 01:22:32 PM 20.7140 -81.3242 182° South  Level FlightAware Approximate
Sat 01:23:32 PM 20.5881 -81.3280 177° South  Level FlightAware Approximate
Sat 01:24:32 PM 20.4648 -81.3201 182° South  Level FlightAware Approximate
Sat 01:25:32 PM 20.3390 -81.3251 182° South  Level FlightAware Approximate
Sat 01:26:32 PM 20.2132 -81.3300 182° South  Level FlightAware Approximate
Sat 01:27:32 PM 20.0874 -81.3350 182° South  Level FlightAware Approximate
Sat 01:28:32 PM 19.9620 -81.3397 184° South  Level FlightAware Approximate
Sat 01:29:32 PM 19.8369 -81.3500 182° South  Level FlightAware Approximate
Sat 01:30:32 PM 19.7111 -81.3538 178° South  Level FlightAware Approximate
Sat 01:31:32 PM 19.5854 -81.3500 180° South  Level FlightAware Approximate
Sat 01:32:32 PM 19.4596 -81.3500 187° South  Level FlightAware Approximate
Sat 01:33:32 PM 19.3399 -81.3667 168° South  Level FlightAware Approximate
Sat 01:34:32 PM 19.2667 -81.3500 344° North  Level FlightAware Approximate
Sat 01:35:32 PM 19.3879 -81.3860 165° South  Level Estimated
Sat 01:36:32 PM 19.2690 -81.3523 348° North  Level FlightAware Approximate
Sat 01:37:32 PM 19.3920 -81.3805 167° South  Level Estimated
Sat 01:38:32 PM 19.2667 -81.3500 344° North  Level FlightAware Approximate
Sat 01:39:32 PM 19.3879 -81.3860 164° South  Level Estimated
Sat 01:40:32 PM 19.2667 -81.3500 344° North  Level FlightAware Approximate
Sat 01:41:32 PM 19.3879 -81.3860 164° South  Level Estimated
Sat 01:42:32 PM 19.2667 -81.3500 164° South  Level FlightAware Approximate

Login

Don't have an account? Register now (free) for customized features, flight alerts, and more!